sensor_id;sensor_type;location;lat;lon;timestamp;P1;P2;P0
59546;PMS5003;45368;55.002;-1.592;2022-12-18T00:00:12;27;24;
59546;PMS5003;45368;55.002;-1.592;2022-12-18T00:02:41;26;21;
59546;PMS5003;45368;55.002;-1.592;2022-12-18T00:05:23;23;20;
59546;PMS5003;45368;55.002;-1.592;2022-12-18T00:07:50;20;18;
59546;PMS5003;45368;55.002;-1.592;2022-12-18T00:10:18;23;20;
59546;PMS5003;45368;55.002;-1.592;2022-12-18T00:12:45;22;20;
59546;PMS5003;45368;55.002;-1.592;2022-12-18T00:15:12;23;23;
59546;PMS5003;45368;55.002;-1.592;2022-12-18T00:17:39;23;22;
59546;PMS5003;45368;55.002;-1.592;2022-12-18T00:20:07;29;28;
59546;PMS5003;45368;55.002;-1.592;2022-12-18T00:22:35;24;22;
59546;PMS5003;45368;55.002;-1.592;2022-12-18T00:25:03;20;20;
59546;PMS5003;45368;55.002;-1.592;2022-12-18T00:27:30;22;22;
59546;PMS5003;45368;55.002;-1.592;2022-12-18T00:29:57;22;22;
59546;PMS5003;45368;55.002;-1.592;2022-12-18T00:32:25;21;19;
59546;PMS5003;45368;55.002;-1.592;2022-12-18T00:34:52;21;20;
59546;PMS5003;45368;55.002;-1.592;2022-12-18T00:37:20;29;28;
59546;PMS5003;45368;55.002;-1.592;2022-12-18T00:39:48;26;24;
59546;PMS5003;45368;55.002;-1.592;2022-12-18T00:42:15;23;21;
59546;PMS5003;45368;55.002;-1.592;2022-12-18T00:44:43;23;21;
59546;PMS5003;45368;55.002;-1.592;2022-12-18T00:47:10;23;22;
59546;PMS5003;45368;55.002;-1.592;2022-12-18T00:49:38;25;23;
59546;PMS5003;45368;55.002;-1.592;2022-12-18T00:52:05;20;20;
59546;PMS5003;45368;55.002;-1.592;2022-12-18T00:54:32;21;19;
59546;PMS5003;45368;55.002;-1.592;2022-12-18T00:56:59;21;20;
59546;PMS5003;45368;55.002;-1.592;2022-12-18T00:59:26;18;17;
59546;PMS5003;45368;55.002;-1.592;2022-12-18T01:01:54;22;19;
59546;PMS5003;45368;55.002;-1.592;2022-12-18T01:04:21;19;17;
59546;PMS5003;45368;55.002;-1.592;2022-12-18T01:06:49;26;24;
59546;PMS5003;45368;55.002;-1.592;2022-12-18T01:09:16;19;19;
59546;PMS5003;45368;55.002;-1.592;2022-12-18T01:11:44;22;21;
59546;PMS5003;45368;55.002;-1.592;2022-12-18T01:14:11;20;20;
59546;PMS5003;45368;55.002;-1.592;2022-12-18T01:16:38;28;26;
59546;PMS5003;45368;55.002;-1.592;2022-12-18T01:19:05;27;26;
59546;PMS5003;45368;55.002;-1.592;2022-12-18T01:21:33;22;21;
59546;PMS5003;45368;55.002;-1.592;2022-12-18T01:24:01;26;24;
59546;PMS5003;45368;55.002;-1.592;2022-12-18T01:26:28;23;22;
59546;PMS5003;45368;55.002;-1.592;2022-12-18T01:28:56;23;22;
59546;PMS5003;45368;55.002;-1.592;2022-12-18T01:31:24;23;22;
59546;PMS5003;45368;55.002;-1.592;2022-12-18T01:33:53;27;25;
59546;PMS5003;45368;55.002;-1.592;2022-12-18T01:36:22;24;23;
59546;PMS5003;45368;55.002;-1.592;2022-12-18T01:38:51;23;21;
59546;PMS5003;45368;55.002;-1.592;2022-12-18T01:41:20;30;27;
59546;PMS5003;45368;55.002;-1.592;2022-12-18T01:43:50;22;20;
59546;PMS5003;45368;55.002;-1.592;2022-12-18T01:46:19;26;23;
59546;PMS5003;45368;55.002;-1.592;2022-12-18T01:48:48;19;18;
59546;PMS5003;45368;55.002;-1.592;2022-12-18T01:51:19;23;21;
59546;PMS5003;45368;55.002;-1.592;2022-12-18T01:53:47;20;19;
59546;PMS5003;45368;55.002;-1.592;2022-12-18T01:56:15;18;17;
59546;PMS5003;45368;55.002;-1.592;2022-12-18T01:58:47;25;23;
59546;PMS5003;45368;55.002;-1.592;2022-12-18T02:01:21;24;23;
59546;PMS5003;45368;55.002;-1.592;2022-12-18T02:03:49;23;22;
59546;PMS5003;45368;55.002;-1.592;2022-12-18T02:06:18;26;22;
59546;PMS5003;45368;55.002;-1.592;2022-12-18T02:08:54;28;25;
59546;PMS5003;45368;55.002;-1.592;2022-12-18T02:11:32;23;22;
59546;PMS5003;45368;55.002;-1.592;2022-12-18T02:14:14;23;23;
59546;PMS5003;45368;55.002;-1.592;2022-12-18T02:16:51;22;20;
59546;PMS5003;45368;55.002;-1.592;2022-12-18T02:19:27;22;21;
59546;PMS5003;45368;55.002;-1.592;2022-12-18T02:22:11;23;21;
59546;PMS5003;45368;55.002;-1.592;2022-12-18T02:24:50;25;23;
59546;PMS5003;45368;55.002;-1.592;2022-12-18T02:27:26;26;25;
59546;PMS5003;45368;55.002;-1.592;2022-12-18T02:29:56;29;27;
59546;PMS5003;45368;55.002;-1.592;2022-12-18T02:32:26;31;27;
59546;PMS5003;45368;55.002;-1.592;2022-12-18T02:34:56;27;26;
59546;PMS5003;45368;55.002;-1.592;2022-12-18T02:37:25;36;32;
59546;PMS5003;45368;55.002;-1.592;2022-12-18T02:39:55;32;31;
59546;PMS5003;45368;55.002;-1.592;2022-12-18T02:42:25;30;28;
59546;PMS5003;45368;55.002;-1.592;2022-12-18T02:44:54;34;32;
59546;PMS5003;45368;55.002;-1.592;2022-12-18T02:47:21;36;34;
59546;PMS5003;45368;55.002;-1.592;2022-12-18T02:49:53;33;31;
59546;PMS5003;45368;55.002;-1.592;2022-12-18T02:52:36;34;32;
59546;PMS5003;45368;55.002;-1.592;2022-12-18T02:55:15;28;27;
59546;PMS5003;45368;55.002;-1.592;2022-12-18T02:57:52;35;32;
59546;PMS5003;45368;55.002;-1.592;2022-12-18T03:00:22;30;30;
59546;PMS5003;45368;55.002;-1.592;2022-12-18T03:02:54;34;31;
59546;PMS5003;45368;55.002;-1.592;2022-12-18T03:05:28;28;27;
59546;PMS5003;45368;55.002;-1.592;2022-12-18T03:08:01;32;30;
59546;PMS5003;45368;55.002;-1.592;2022-12-18T03:10:34;33;31;
59546;PMS5003;45368;55.002;-1.592;2022-12-18T03:13:07;31;30;
59546;PMS5003;45368;55.002;-1.592;2022-12-18T03:15:39;35;33;
59546;PMS5003;45368;55.002;-1.592;2022-12-18T03:18:12;30;28;
59546;PMS5003;45368;55.002;-1.592;2022-12-18T03:20:44;38;36;
59546;PMS5003;45368;55.002;-1.592;2022-12-18T03:23:14;32;30;
59546;PMS5003;45368;55.002;-1.592;2022-12-18T03:25:44;34;32;
59546;PMS5003;45368;55.002;-1.592;2022-12-18T03:28:14;32;29;
59546;PMS5003;45368;55.002;-1.592;2022-12-18T03:30:43;37;34;
59546;PMS5003;45368;55.002;-1.592;2022-12-18T03:33:15;32;32;
59546;PMS5003;45368;55.002;-1.592;2022-12-18T03:35:46;38;37;
59546;PMS5003;45368;55.002;-1.592;2022-12-18T03:38:13;40;37;
59546;PMS5003;45368;55.002;-1.592;2022-12-18T03:40:44;54;47;
59546;PMS5003;45368;55.002;-1.592;2022-12-18T03:43:19;44;40;
59546;PMS5003;45368;55.002;-1.592;2022-12-18T03:45:56;46;44;
59546;PMS5003;45368;55.002;-1.592;2022-12-18T03:48:29;39;38;
59546;PMS5003;45368;55.002;-1.592;2022-12-18T03:51:05;51;49;
59546;PMS5003;45368;55.002;-1.592;2022-12-18T03:53:37;49;47;
59546;PMS5003;45368;55.002;-1.592;2022-12-18T03:56:15;51;48;
59546;PMS5003;45368;55.002;-1.592;2022-12-18T03:58:44;47;43;
59546;PMS5003;45368;55.002;-1.592;2022-12-18T04:01:14;51;47;
59546;PMS5003;45368;55.002;-1.592;2022-12-18T04:03:44;51;48;
59546;PMS5003;45368;55.002;-1.592;2022-12-18T04:06:15;55;50;
59546;PMS5003;45368;55.002;-1.592;2022-12-18T04:08:44;52;50;
59546;PMS5003;45368;55.002;-1.592;2022-12-18T04:11:13;51;49;
59546;PMS5003;45368;55.002;-1.592;2022-12-18T04:13:41;54;53;
59546;PMS5003;45368;55.002;-1.592;2022-12-18T04:16:09;53;50;
59546;PMS5003;45368;55.002;-1.592;2022-12-18T04:18:36;50;48;
59546;PMS5003;45368;55.002;-1.592;2022-12-18T04:21:03;55;52;
59546;PMS5003;45368;55.002;-1.592;2022-12-18T04:23:31;60;49;
59546;PMS5003;45368;55.002;-1.592;2022-12-18T04:25:58;60;54;
59546;PMS5003;45368;55.002;-1.592;2022-12-18T04:28:25;59;54;
59546;PMS5003;45368;55.002;-1.592;2022-12-18T04:30:53;57;54;
59546;PMS5003;45368;55.002;-1.592;2022-12-18T04:33:20;56;53;
59546;PMS5003;45368;55.002;-1.592;2022-12-18T04:35:47;57;53;
59546;PMS5003;45368;55.002;-1.592;2022-12-18T04:38:15;50;45;
59546;PMS5003;45368;55.002;-1.592;2022-12-18T04:40:43;51;49;
59546;PMS5003;45368;55.002;-1.592;2022-12-18T04:43:11;51;48;
59546;PMS5003;45368;55.002;-1.592;2022-12-18T04:45:38;52;52;
59546;PMS5003;45368;55.002;-1.592;2022-12-18T04:48:05;49;48;
59546;PMS5003;45368;55.002;-1.592;2022-12-18T04:50:32;50;49;
59546;PMS5003;45368;55.002;-1.592;2022-12-18T04:52:59;52;49;
59546;PMS5003;45368;55.002;-1.592;2022-12-18T04:55:26;52;50;
59546;PMS5003;45368;55.002;-1.592;2022-12-18T04:57:54;46;45;
59546;PMS5003;45368;55.002;-1.592;2022-12-18T05:00:22;55;50;
59546;PMS5003;45368;55.002;-1.592;2022-12-18T05:02:49;49;46;
59546;PMS5003;45368;55.002;-1.592;2022-12-18T05:05:17;51;49;
59546;PMS5003;45368;55.002;-1.592;2022-12-18T05:07:45;56;52;
59546;PMS5003;45368;55.002;-1.592;2022-12-18T05:10:12;47;46;
59546;PMS5003;45368;55.002;-1.592;2022-12-18T05:12:39;55;51;
59546;PMS5003;45368;55.002;-1.592;2022-12-18T05:15:07;46;44;
59546;PMS5003;45368;55.002;-1.592;2022-12-18T05:17:34;50;45;
59546;PMS5003;45368;55.002;-1.592;2022-12-18T05:20:02;51;48;
59546;PMS5003;45368;55.002;-1.592;2022-12-18T05:22:29;48;47;
59546;PMS5003;45368;55.002;-1.592;2022-12-18T05:24:57;57;54;
59546;PMS5003;45368;55.002;-1.592;2022-12-18T05:27:24;55;52;
59546;PMS5003;45368;55.002;-1.592;2022-12-18T05:29:52;54;50;
59546;PMS5003;45368;55.002;-1.592;2022-12-18T05:32:19;65;57;
59546;PMS5003;45368;55.002;-1.592;2022-12-18T05:34:46;54;51;
59546;PMS5003;45368;55.002;-1.592;2022-12-18T05:37:13;61;54;
59546;PMS5003;45368;55.002;-1.592;2022-12-18T05:39:40;53;52;
59546;PMS5003;45368;55.002;-1.592;2022-12-18T05:42:09;57;54;
59546;PMS5003;45368;55.002;-1.592;2022-12-18T05:44:36;58;51;
59546;PMS5003;45368;55.002;-1.592;2022-12-18T05:47:04;58;55;
59546;PMS5003;45368;55.002;-1.592;2022-12-18T05:49:32;54;50;
59546;PMS5003;45368;55.002;-1.592;2022-12-18T05:51:59;66;52;
59546;PMS5003;45368;55.002;-1.592;2022-12-18T05:54:26;52;49;
59546;PMS5003;45368;55.002;-1.592;2022-12-18T05:56:54;54;51;
59546;PMS5003;45368;55.002;-1.592;2022-12-18T05:59:22;50;46;
59546;PMS5003;45368;55.002;-1.592;2022-12-18T06:01:49;49;47;
59546;PMS5003;45368;55.002;-1.592;2022-12-18T06:04:16;51;48;
59546;PMS5003;45368;55.002;-1.592;2022-12-18T06:06:43;50;48;
59546;PMS5003;45368;55.002;-1.592;2022-12-18T06:09:11;56;50;
59546;PMS5003;45368;55.002;-1.592;2022-12-18T06:11:38;58;54;
59546;PMS5003;45368;55.002;-1.592;2022-12-18T06:14:06;53;48;
59546;PMS5003;45368;55.002;-1.592;2022-12-18T06:16:33;51;48;
59546;PMS5003;45368;55.002;-1.592;2022-12-18T06:19:02;52;45;
59546;PMS5003;45368;55.002;-1.592;2022-12-18T06:21:31;56;50;
59546;PMS5003;45368;55.002;-1.592;2022-12-18T06:23:59;51;48;
59546;PMS5003;45368;55.002;-1.592;2022-12-18T06:26:26;51;48;
59546;PMS5003;45368;55.002;-1.592;2022-12-18T06:28:53;49;47;
59546;PMS5003;45368;55.002;-1.592;2022-12-18T06:31:21;47;45;
59546;PMS5003;45368;55.002;-1.592;2022-12-18T06:33:48;53;51;
59546;PMS5003;45368;55.002;-1.592;2022-12-18T06:36:16;52;48;
59546;PMS5003;45368;55.002;-1.592;2022-12-18T06:38:43;52;49;
59546;PMS5003;45368;55.002;-1.592;2022-12-18T06:41:11;53;51;
59546;PMS5003;45368;55.002;-1.592;2022-12-18T06:43:40;50;48;
59546;PMS5003;45368;55.002;-1.592;2022-12-18T06:46:08;51;46;
59546;PMS5003;45368;55.002;-1.592;2022-12-18T06:48:36;53;51;
59546;PMS5003;45368;55.002;-1.592;2022-12-18T06:51:04;51;49;
59546;PMS5003;45368;55.002;-1.592;2022-12-18T06:53:32;48;44;
59546;PMS5003;45368;55.002;-1.592;2022-12-18T06:56:00;47;42;
59546;PMS5003;45368;55.002;-1.592;2022-12-18T06:58:28;54;52;
59546;PMS5003;45368;55.002;-1.592;2022-12-18T07:00:59;50;49;
59546;PMS5003;45368;55.002;-1.592;2022-12-18T07:03:27;49;43;
59546;PMS5003;45368;55.002;-1.592;2022-12-18T07:05:55;47;45;
59546;PMS5003;45368;55.002;-1.592;2022-12-18T07:08:21;45;44;
59546;PMS5003;45368;55.002;-1.592;2022-12-18T07:10:49;49;47;
59546;PMS5003;45368;55.002;-1.592;2022-12-18T07:13:16;45;41;
59546;PMS5003;45368;55.002;-1.592;2022-12-18T07:15:44;45;43;
59546;PMS5003;45368;55.002;-1.592;2022-12-18T07:18:11;49;45;
59546;PMS5003;45368;55.002;-1.592;2022-12-18T07:20:38;55;51;
59546;PMS5003;45368;55.002;-1.592;2022-12-18T07:23:05;50;49;
59546;PMS5003;45368;55.002;-1.592;2022-12-18T07:25:33;59;53;
59546;PMS5003;45368;55.002;-1.592;2022-12-18T07:28:00;54;46;
59546;PMS5003;45368;55.002;-1.592;2022-12-18T07:30:28;51;49;
59546;PMS5003;45368;55.002;-1.592;2022-12-18T07:32:55;55;52;
59546;PMS5003;45368;55.002;-1.592;2022-12-18T07:35:23;50;48;
59546;PMS5003;45368;55.002;-1.592;2022-12-18T07:37:49;62;52;
59546;PMS5003;45368;55.002;-1.592;2022-12-18T07:40:17;58;52;
59546;PMS5003;45368;55.002;-1.592;2022-12-18T07:42:44;51;50;
59546;PMS5003;45368;55.002;-1.592;2022-12-18T07:45:10;48;47;
59546;PMS5003;45368;55.002;-1.592;2022-12-18T07:47:37;49;47;
59546;PMS5003;45368;55.002;-1.592;2022-12-18T07:50:05;48;46;
59546;PMS5003;45368;55.002;-1.592;2022-12-18T07:52:33;55;51;
59546;PMS5003;45368;55.002;-1.592;2022-12-18T07:55:01;56;51;
59546;PMS5003;45368;55.002;-1.592;2022-12-18T07:57:29;47;45;
59546;PMS5003;45368;55.002;-1.592;2022-12-18T07:59:56;51;50;
59546;PMS5003;45368;55.002;-1.592;2022-12-18T08:02:24;58;56;
59546;PMS5003;45368;55.002;-1.592;2022-12-18T08:04:50;55;51;
59546;PMS5003;45368;55.002;-1.592;2022-12-18T08:07:18;52;47;
59546;PMS5003;45368;55.002;-1.592;2022-12-18T08:09:46;55;52;
59546;PMS5003;45368;55.002;-1.592;2022-12-18T08:12:13;54;48;
59546;PMS5003;45368;55.002;-1.592;2022-12-18T08:14:40;51;47;
59546;PMS5003;45368;55.002;-1.592;2022-12-18T08:17:07;53;49;
59546;PMS5003;45368;55.002;-1.592;2022-12-18T08:19:34;55;51;
59546;PMS5003;45368;55.002;-1.592;2022-12-18T08:22:02;66;58;
59546;PMS5003;45368;55.002;-1.592;2022-12-18T08:24:29;57;54;
59546;PMS5003;45368;55.002;-1.592;2022-12-18T08:26:56;69;55;
59546;PMS5003;45368;55.002;-1.592;2022-12-18T08:29:24;54;51;
59546;PMS5003;45368;55.002;-1.592;2022-12-18T08:31:51;63;61;
59546;PMS5003;45368;55.002;-1.592;2022-12-18T08:34:19;63;58;
59546;PMS5003;45368;55.002;-1.592;2022-12-18T08:36:46;69;58;
59546;PMS5003;45368;55.002;-1.592;2022-12-18T08:39:14;65;59;
59546;PMS5003;45368;55.002;-1.592;2022-12-18T08:41:41;65;59;
59546;PMS5003;45368;55.002;-1.592;2022-12-18T08:44:09;66;59;
59546;PMS5003;45368;55.002;-1.592;2022-12-18T08:46:36;66;59;
59546;PMS5003;45368;55.002;-1.592;2022-12-18T08:49:05;62;57;
59546;PMS5003;45368;55.002;-1.592;2022-12-18T08:51:33;61;58;
59546;PMS5003;45368;55.002;-1.592;2022-12-18T08:54:02;63;59;
59546;PMS5003;45368;55.002;-1.592;2022-12-18T08:56:30;63;57;
59546;PMS5003;45368;55.002;-1.592;2022-12-18T08:58:57;62;56;
59546;PMS5003;45368;55.002;-1.592;2022-12-18T09:01:25;64;60;
59546;PMS5003;45368;55.002;-1.592;2022-12-18T09:03:52;63;54;
59546;PMS5003;45368;55.002;-1.592;2022-12-18T09:06:20;70;63;
59546;PMS5003;45368;55.002;-1.592;2022-12-18T09:08:49;70;57;
59546;PMS5003;45368;55.002;-1.592;2022-12-18T09:11:19;60;56;
59546;PMS5003;45368;55.002;-1.592;2022-12-18T09:13:48;58;49;
59546;PMS5003;45368;55.002;-1.592;2022-12-18T09:16:16;66;60;
59546;PMS5003;45368;55.002;-1.592;2022-12-18T09:18:44;68;59;
59546;PMS5003;45368;55.002;-1.592;2022-12-18T09:21:12;61;57;
59546;PMS5003;45368;55.002;-1.592;2022-12-18T09:23:41;71;60;
59546;PMS5003;45368;55.002;-1.592;2022-12-18T09:26:09;67;60;
59546;PMS5003;45368;55.002;-1.592;2022-12-18T09:28:36;68;61;
59546;PMS5003;45368;55.002;-1.592;2022-12-18T09:31:05;68;59;
59546;PMS5003;45368;55.002;-1.592;2022-12-18T09:33:34;65;57;
59546;PMS5003;45368;55.002;-1.592;2022-12-18T09:36:02;65;60;
59546;PMS5003;45368;55.002;-1.592;2022-12-18T09:38:32;69;60;
59546;PMS5003;45368;55.002;-1.592;2022-12-18T09:41:02;71;60;
59546;PMS5003;45368;55.002;-1.592;2022-12-18T09:43:44;65;56;
59546;PMS5003;45368;55.002;-1.592;2022-12-18T09:46:16;74;66;
59546;PMS5003;45368;55.002;-1.592;2022-12-18T09:48:49;74;64;
59546;PMS5003;45368;55.002;-1.592;2022-12-18T09:51:22;77;59;
59546;PMS5003;45368;55.002;-1.592;2022-12-18T09:53:55;74;68;
59546;PMS5003;45368;55.002;-1.592;2022-12-18T09:56:28;66;62;
59546;PMS5003;45368;55.002;-1.592;2022-12-18T09:59:02;74;60;
59546;PMS5003;45368;55.002;-1.592;2022-12-18T10:01:31;69;60;
59546;PMS5003;45368;55.002;-1.592;2022-12-18T10:03:59;68;64;
59546;PMS5003;45368;55.002;-1.592;2022-12-18T10:06:27;68;62;
59546;PMS5003;45368;55.002;-1.592;2022-12-18T10:09:02;71;64;
59546;PMS5003;45368;55.002;-1.592;2022-12-18T10:11:38;65;60;
59546;PMS5003;45368;55.002;-1.592;2022-12-18T10:14:14;78;61;
59546;PMS5003;45368;55.002;-1.592;2022-12-18T10:16:51;79;66;
59546;PMS5003;45368;55.002;-1.592;2022-12-18T10:19:29;67;59;
59546;PMS5003;45368;55.002;-1.592;2022-12-18T10:22:09;66;58;
59546;PMS5003;45368;55.002;-1.592;2022-12-18T10:24:46;70;59;
59546;PMS5003;45368;55.002;-1.592;2022-12-18T10:27:21;71;56;
59546;PMS5003;45368;55.002;-1.592;2022-12-18T10:29:53;66;60;
59546;PMS5003;45368;55.002;-1.592;2022-12-18T10:32:22;68;56;
59546;PMS5003;45368;55.002;-1.592;2022-12-18T10:34:52;73;65;
59546;PMS5003;45368;55.002;-1.592;2022-12-18T10:37:22;75;65;
59546;PMS5003;45368;55.002;-1.592;2022-12-18T10:40:05;70;58;
59546;PMS5003;45368;55.002;-1.592;2022-12-18T10:42:35;78;68;
59546;PMS5003;45368;55.002;-1.592;2022-12-18T10:45:05;71;62;
59546;PMS5003;45368;55.002;-1.592;2022-12-18T10:47:35;70;61;
59546;PMS5003;45368;55.002;-1.592;2022-12-18T10:50:10;73;60;
59546;PMS5003;45368;55.002;-1.592;2022-12-18T10:52:53;64;62;
59546;PMS5003;45368;55.002;-1.592;2022-12-18T10:55:22;73;64;
59546;PMS5003;45368;55.002;-1.592;2022-12-18T10:57:50;71;62;
59546;PMS5003;45368;55.002;-1.592;2022-12-18T11:00:21;73;65;
59546;PMS5003;45368;55.002;-1.592;2022-12-18T11:02:51;73;58;
59546;PMS5003;45368;55.002;-1.592;2022-12-18T11:05:27;72;60;
59546;PMS5003;45368;55.002;-1.592;2022-12-18T11:07:57;68;60;
59546;PMS5003;45368;55.002;-1.592;2022-12-18T11:10:26;70;60;
59546;PMS5003;45368;55.002;-1.592;2022-12-18T11:13:09;63;58;
59546;PMS5003;45368;55.002;-1.592;2022-12-18T11:15:39;59;51;
59546;PMS5003;45368;55.002;-1.592;2022-12-18T11:18:14;75;65;
59546;PMS5003;45368;55.002;-1.592;2022-12-18T11:20:46;75;66;
59546;PMS5003;45368;55.002;-1.592;2022-12-18T11:23:18;73;63;
59546;PMS5003;45368;55.002;-1.592;2022-12-18T11:25:50;64;55;
59546;PMS5003;45368;55.002;-1.592;2022-12-18T11:28:29;71;58;
59546;PMS5003;45368;55.002;-1.592;2022-12-18T11:31:16;61;56;
59546;PMS5003;45368;55.002;-1.592;2022-12-18T11:33:50;75;58;
59546;PMS5003;45368;55.002;-1.592;2022-12-18T11:36:24;67;56;
59546;PMS5003;45368;55.002;-1.592;2022-12-18T11:38:55;63;58;
59546;PMS5003;45368;55.002;-1.592;2022-12-18T11:41:29;62;54;
59546;PMS5003;45368;55.002;-1.592;2022-12-18T11:44:03;61;56;
59546;PMS5003;45368;55.002;-1.592;2022-12-18T11:46:36;55;49;
59546;PMS5003;45368;55.002;-1.592;2022-12-18T11:49:11;67;59;
59546;PMS5003;45368;55.002;-1.592;2022-12-18T11:51:45;66;54;
59546;PMS5003;45368;55.002;-1.592;2022-12-18T11:54:18;58;52;
59546;PMS5003;45368;55.002;-1.592;2022-12-18T11:56:46;59;53;
59546;PMS5003;45368;55.002;-1.592;2022-12-18T11:59:17;60;54;
59546;PMS5003;45368;55.002;-1.592;2022-12-18T12:01:58;68;61;
59546;PMS5003;45368;55.002;-1.592;2022-12-18T12:04:48;63;57;
59546;PMS5003;45368;55.002;-1.592;2022-12-18T12:08:00;71;62;
59546;PMS5003;45368;55.002;-1.592;2022-12-18T12:10:38;58;50;
59546;PMS5003;45368;55.002;-1.592;2022-12-18T12:13:21;65;56;
59546;PMS5003;45368;55.002;-1.592;2022-12-18T12:16:00;64;53;
59546;PMS5003;45368;55.002;-1.592;2022-12-18T12:18:41;61;55;
59546;PMS5003;45368;55.002;-1.592;2022-12-18T12:21:20;66;55;
59546;PMS5003;45368;55.002;-1.592;2022-12-18T12:23:55;69;58;
59546;PMS5003;45368;55.002;-1.592;2022-12-18T12:26:31;59;53;
59546;PMS5003;45368;55.002;-1.592;2022-12-18T12:29:09;67;54;
59546;PMS5003;45368;55.002;-1.592;2022-12-18T12:31:54;67;56;
59546;PMS5003;45368;55.002;-1.592;2022-12-18T12:34:33;62;55;
59546;PMS5003;45368;55.002;-1.592;2022-12-18T12:37:11;65;54;
59546;PMS5003;45368;55.002;-1.592;2022-12-18T12:39:49;66;58;
59546;PMS5003;45368;55.002;-1.592;2022-12-18T12:42:23;65;58;
59546;PMS5003;45368;55.002;-1.592;2022-12-18T12:44:56;69;62;
59546;PMS5003;45368;55.002;-1.592;2022-12-18T12:47:30;78;69;
59546;PMS5003;45368;55.002;-1.592;2022-12-18T12:50:00;69;58;
59546;PMS5003;45368;55.002;-1.592;2022-12-18T12:52:34;56;53;
59546;PMS5003;45368;55.002;-1.592;2022-12-18T12:55:07;56;51;
59546;PMS5003;45368;55.002;-1.592;2022-12-18T12:57:43;59;49;
59546;PMS5003;45368;55.002;-1.592;2022-12-18T13:00:15;62;54;
59546;PMS5003;45368;55.002;-1.592;2022-12-18T13:02:46;65;51;
59546;PMS5003;45368;55.002;-1.592;2022-12-18T13:05:21;51;47;
59546;PMS5003;45368;55.002;-1.592;2022-12-18T13:07:52;52;46;
59546;PMS5003;45368;55.002;-1.592;2022-12-18T13:10:25;63;46;
59546;PMS5003;45368;55.002;-1.592;2022-12-18T13:12:58;54;45;
59546;PMS5003;45368;55.002;-1.592;2022-12-18T13:15:30;54;47;
59546;PMS5003;45368;55.002;-1.592;2022-12-18T13:18:17;55;48;
59546;PMS5003;45368;55.002;-1.592;2022-12-18T13:20:47;53;48;
59546;PMS5003;45368;55.002;-1.592;2022-12-18T13:23:25;60;53;
59546;PMS5003;45368;55.002;-1.592;2022-12-18T13:26:27;57;50;
59546;PMS5003;45368;55.002;-1.592;2022-12-18T13:28:56;59;52;
59546;PMS5003;45368;55.002;-1.592;2022-12-18T13:31:57;48;45;
59546;PMS5003;45368;55.002;-1.592;2022-12-18T13:34:26;56;49;
59546;PMS5003;45368;55.002;-1.592;2022-12-18T13:36:56;56;46;
59546;PMS5003;45368;55.002;-1.592;2022-12-18T13:40:25;59;55;
59546;PMS5003;45368;55.002;-1.592;2022-12-18T13:43:27;56;48;
59546;PMS5003;45368;55.002;-1.592;2022-12-18T13:45:59;51;47;
59546;PMS5003;45368;55.002;-1.592;2022-12-18T13:48:31;54;48;
59546;PMS5003;45368;55.002;-1.592;2022-12-18T13:51:01;52;40;
59546;PMS5003;45368;55.002;-1.592;2022-12-18T13:53:33;48;44;
59546;PMS5003;45368;55.002;-1.592;2022-12-18T13:56:04;44;40;
59546;PMS5003;45368;55.002;-1.592;2022-12-18T13:58:32;47;43;
59546;PMS5003;45368;55.002;-1.592;2022-12-18T14:01:00;49;45;
59546;PMS5003;45368;55.002;-1.592;2022-12-18T14:03:28;50;45;
59546;PMS5003;45368;55.002;-1.592;2022-12-18T14:05:58;46;41;
59546;PMS5003;45368;55.002;-1.592;2022-12-18T14:08:30;52;43;
59546;PMS5003;45368;55.002;-1.592;2022-12-18T14:11:01;51;46;
59546;PMS5003;45368;55.002;-1.592;2022-12-18T14:13:32;51;46;
59546;PMS5003;45368;55.002;-1.592;2022-12-18T14:16:03;52;48;
59546;PMS5003;45368;55.002;-1.592;2022-12-18T14:18:35;46;41;
59546;PMS5003;45368;55.002;-1.592;2022-12-18T14:21:14;52;45;
59546;PMS5003;45368;55.002;-1.592;2022-12-18T14:23:46;57;47;
59546;PMS5003;45368;55.002;-1.592;2022-12-18T14:26:22;42;38;
59546;PMS5003;45368;55.002;-1.592;2022-12-18T14:28:51;49;45;
59546;PMS5003;45368;55.002;-1.592;2022-12-18T14:31:18;47;40;
59546;PMS5003;45368;55.002;-1.592;2022-12-18T14:33:46;48;41;
59546;PMS5003;45368;55.002;-1.592;2022-12-18T14:36:15;44;37;
59546;PMS5003;45368;55.002;-1.592;2022-12-18T14:38:48;50;46;
59546;PMS5003;45368;55.002;-1.592;2022-12-18T14:41:17;51;38;
59546;PMS5003;45368;55.002;-1.592;2022-12-18T14:43:45;48;43;
59546;PMS5003;45368;55.002;-1.592;2022-12-18T14:46:32;42;40;
59546;PMS5003;45368;55.002;-1.592;2022-12-18T14:49:03;51;42;
59546;PMS5003;45368;55.002;-1.592;2022-12-18T14:51:47;44;42;
59546;PMS5003;45368;55.002;-1.592;2022-12-18T14:54:17;39;36;
59546;PMS5003;45368;55.002;-1.592;2022-12-18T14:56:47;47;42;
59546;PMS5003;45368;55.002;-1.592;2022-12-18T14:59:18;47;42;
59546;PMS5003;45368;55.002;-1.592;2022-12-18T15:01:48;45;40;
59546;PMS5003;45368;55.002;-1.592;2022-12-18T15:04:26;43;40;
59546;PMS5003;45368;55.002;-1.592;2022-12-18T15:07:12;42;39;
59546;PMS5003;45368;55.002;-1.592;2022-12-18T15:09:42;45;43;
59546;PMS5003;45368;55.002;-1.592;2022-12-18T15:12:19;44;38;
59546;PMS5003;45368;55.002;-1.592;2022-12-18T15:14:55;46;39;
59546;PMS5003;45368;55.002;-1.592;2022-12-18T15:17:22;39;34;
59546;PMS5003;45368;55.002;-1.592;2022-12-18T15:19:51;43;40;
59546;PMS5003;45368;55.002;-1.592;2022-12-18T15:22:26;43;37;
59546;PMS5003;45368;55.002;-1.592;2022-12-18T15:24:55;40;36;
59546;PMS5003;45368;55.002;-1.592;2022-12-18T15:27:27;32;30;
59546;PMS5003;45368;55.002;-1.592;2022-12-18T15:30:01;36;33;
59546;PMS5003;45368;55.002;-1.592;2022-12-18T15:32:51;41;35;
59546;PMS5003;45368;55.002;-1.592;2022-12-18T15:35:42;38;35;
59546;PMS5003;45368;55.002;-1.592;2022-12-18T15:38:09;42;37;
59546;PMS5003;45368;55.002;-1.592;2022-12-18T15:40:36;45;38;
59546;PMS5003;45368;55.002;-1.592;2022-12-18T15:43:04;43;38;
59546;PMS5003;45368;55.002;-1.592;2022-12-18T15:45:34;45;38;
59546;PMS5003;45368;55.002;-1.592;2022-12-18T15:48:04;41;38;
59546;PMS5003;45368;55.002;-1.592;2022-12-18T15:50:41;43;38;
59546;PMS5003;45368;55.002;-1.592;2022-12-18T15:53:09;43;37;
59546;PMS5003;45368;55.002;-1.592;2022-12-18T15:55:36;41;39;
59546;PMS5003;45368;55.002;-1.592;2022-12-18T15:58:04;42;36;
59546;PMS5003;45368;55.002;-1.592;2022-12-18T16:00:33;43;38;
59546;PMS5003;45368;55.002;-1.592;2022-12-18T16:03:02;40;39;
59546;PMS5003;45368;55.002;-1.592;2022-12-18T16:05:30;39;34;
59546;PMS5003;45368;55.002;-1.592;2022-12-18T16:07:58;44;40;
59546;PMS5003;45368;55.002;-1.592;2022-12-18T16:10:25;42;36;
59546;PMS5003;45368;55.002;-1.592;2022-12-18T16:12:53;38;35;
59546;PMS5003;45368;55.002;-1.592;2022-12-18T16:15:21;44;39;
59546;PMS5003;45368;55.002;-1.592;2022-12-18T16:17:49;42;38;
59546;PMS5003;45368;55.002;-1.592;2022-12-18T16:20:16;43;37;
59546;PMS5003;45368;55.002;-1.592;2022-12-18T16:22:46;42;38;
59546;PMS5003;45368;55.002;-1.592;2022-12-18T16:25:17;38;32;